EDDB/SXF METAR and TAF weather

Enter ICAO airport designator
Station Type Date Time Source
EDDB METAR 2021/10/24 21:50 UTC NOAA

EDDB 242150Z 15008KT CAVOK 04/01 Q1024 NOSIG


Station Type Date Time Source
EDDB Decoded METAR 2021/10/24 21:50 UTC NOAA

Berlin-Schoenefeld, Germany (EDDB) 52-23N 013-31E 50M
Oct 24, 2021 - 05:50 PM EDT / 2021.10.24 2150 UTC
Wind: from the SSE (150 degrees) at 9 MPH (8 KT):0
Visibility: greater than 7 mile(s):0
Temperature: 39 F (4 C)
Dew Point: 33 F (1 C)
Relative Humidity: 80%
Pressure (altimeter): 30.24 in. Hg (1024 hPa)
ob: EDDB 242150Z 15008KT CAVOK 04/01 Q1024 NOSIG
cycle: 22

Station Type Date Time Source
EDDB TAF 2021/10/24 18:27 UTC NOAA

TAF TAF EDDB 241700Z 2418/2518 15007KT CAVOK

Example: see airport list